createdAt,value
2018-01-01T00:00:47.550Z,97.03
2018-01-01T00:01:47.553Z,97.03
2018-01-01T00:02:47.567Z,96.08
2018-01-01T00:03:47.495Z,95.70
2018-01-01T00:04:47.475Z,96.17
2018-01-01T00:05:47.465Z,96.27
2018-01-01T00:06:47.438Z,96.55
2018-01-01T00:07:47.418Z,95.98
2018-01-01T00:08:47.397Z,96.17
2018-01-01T00:09:47.379Z,96.17
2018-01-01T00:10:47.361Z,96.17
2018-01-01T00:11:47.345Z,96.17
2018-01-01T00:12:47.325Z,96.17
2018-01-01T00:13:47.304Z,95.03
2018-01-01T00:14:47.286Z,95.27
2018-01-01T00:15:47.264Z,95.56
2018-01-01T00:16:47.243Z,96.03
2018-01-01T00:17:47.229Z,96.03
2018-01-01T00:18:47.224Z,95.46
2018-01-01T00:19:47.191Z,94.13
2018-01-01T00:20:47.178Z,94.89
2018-01-01T00:21:47.226Z,94.42
2018-01-01T00:22:47.138Z,94.70
2018-01-01T00:23:47.112Z,94.89
2018-01-01T00:24:47.097Z,94.89
2018-01-01T00:25:47.090Z,93.84
2018-01-01T00:26:47.058Z,94.42
2018-01-01T00:27:47.034Z,94.22
2018-01-01T00:28:47.013Z,94.42
2018-01-01T00:29:46.998Z,94.89
2018-01-01T00:30:46.973Z,94.13
2018-01-01T00:31:46.954Z,93.55
2018-01-01T00:32:46.935Z,93.37
2018-01-01T00:33:46.925Z,93.55
2018-01-01T00:34:46.896Z,93.55
2018-01-01T00:35:46.877Z,92.70
2018-01-01T00:36:46.862Z,92.13
2018-01-01T00:37:46.841Z,92.51
2018-01-01T00:38:46.821Z,92.32
2018-01-01T00:39:46.800Z,92.41
2018-01-01T00:40:46.794Z,92.41
2018-01-01T00:41:46.762Z,92.03
2018-01-01T00:42:46.743Z,92.03
2018-01-01T00:43:46.732Z,92.03
2018-01-01T00:44:46.702Z,91.37
2018-01-01T00:45:46.683Z,92.13
2018-01-01T00:46:46.661Z,92.32
2018-01-01T00:47:46.645Z,91.75
2018-01-01T00:48:46.624Z,91.75
2018-01-01T00:49:46.607Z,91.65
2018-01-01T00:50:46.588Z,91.75
2018-01-01T00:51:46.574Z,91.46
2018-01-01T00:52:46.548Z,91.27
2018-01-01T00:53:46.529Z,91.08
2018-01-01T00:54:46.509Z,91.27
2018-01-01T00:55:46.488Z,92.13
2018-01-01T00:56:46.468Z,92.03
2018-01-01T00:57:46.499Z,91.75
2018-01-01T00:58:46.427Z,92.03
2018-01-01T00:59:46.417Z,91.94
2018-01-01T01:00:46.390Z,91.94
2018-01-01T01:01:46.369Z,91.37
2018-01-01T01:02:46.356Z,91.17
2018-01-01T01:03:46.342Z,91.08
2018-01-01T01:04:46.310Z,91.75
2018-01-01T01:05:46.289Z,90.89
2018-01-01T01:06:46.280Z,90.99
2018-01-01T01:07:46.256Z,90.89
2018-01-01T01:08:46.231Z,90.80
2018-01-01T01:09:46.214Z,90.99
2018-01-01T01:10:46.246Z,91.08
2018-01-01T01:11:46.180Z,90.89
2018-01-01T01:12:46.158Z,90.32
2018-01-01T01:13:46.140Z,91.17
2018-01-01T01:14:46.115Z,91.37
2018-01-01T01:15:46.095Z,90.70
2018-01-01T01:16:46.076Z,90.51
2018-01-01T01:17:46.060Z,90.89
2018-01-01T01:18:46.036Z,90.22
2018-01-01T01:19:46.015Z,90.13
2018-01-01T01:20:45.993Z,89.75
2018-01-01T01:21:45.979Z,90.03
2018-01-01T01:22:45.956Z,88.99
2018-01-01T01:23:45.937Z,89.75
2018-01-01T01:24:45.924Z,89.47
2018-01-01T01:25:45.897Z,88.79
2018-01-01T01:26:45.899Z,88.13
2018-01-01T01:27:45.857Z,88.13
2018-01-01T01:28:45.837Z,87.56
2018-01-01T01:29:45.816Z,87.37
2018-01-01T01:30:45.797Z,87.56
2018-01-01T01:31:45.789Z,86.90
2018-01-01T01:32:45.837Z,87.37
2018-01-01T01:33:45.736Z,87.46
2018-01-01T01:34:45.717Z,86.99
2018-01-01T01:35:45.754Z,86.90
2018-01-01T01:36:45.678Z,87.37
2018-01-01T01:37:45.657Z,86.70
2018-01-01T01:38:45.638Z,86.90
2018-01-01T01:39:45.619Z,86.70
2018-01-01T01:40:45.711Z,87.18
2018-01-01T01:41:45.582Z,87.18
2018-01-01T01:42:45.566Z,87.75
2018-01-01T01:43:45.594Z,87.27
2018-01-01T01:44:45.516Z,87.75
2018-01-01T01:45:45.502Z,87.23
2018-01-01T01:46:45.481Z,86.66
2018-01-01T01:47:45.471Z,85.61
2018-01-01T01:48:45.436Z,85.85
2018-01-01T01:49:45.417Z,86.32
2018-01-01T01:50:45.417Z,85.75
2018-01-01T01:51:45.380Z,84.70
2018-01-01T01:52:45.355Z,84.04
2018-01-01T01:53:45.341Z,84.23
2018-01-01T01:54:45.327Z,83.47
2018-01-01T01:55:45.300Z,82.99
2018-01-01T01:56:45.279Z,82.80
2018-01-01T01:57:45.262Z,82.99
2018-01-01T01:58:45.247Z,82.80
2018-01-01T01:59:45.224Z,82.51
2018-01-01T02:00:45.202Z,82.80
2018-01-01T02:01:45.181Z,82.51
2018-01-01T02:02:45.251Z,82.99
2018-01-01T02:03:45.183Z,83.37
2018-01-01T02:04:45.127Z,83.28
2018-01-01T02:05:45.121Z,83.65
2018-01-01T02:06:45.079Z,83.56
2018-01-01T02:07:45.059Z,83.18
2018-01-01T02:08:45.038Z,83.28
2018-01-01T02:09:45.028Z,84.04
2018-01-01T02:10:45.029Z,84.23
2018-01-01T02:11:44.977Z,84.33
2018-01-01T02:12:44.959Z,84.33
2018-01-01T02:13:44.938Z,84.23
2018-01-01T02:14:44.918Z,84.13
2018-01-01T02:15:44.947Z,84.23
2018-01-01T02:16:44.878Z,84.33
2018-01-01T02:17:44.907Z,84.33
2018-01-01T02:18:44.836Z,85.18
2018-01-01T02:19:44.819Z,84.89
2018-01-01T02:20:44.800Z,84.99
2018-01-01T02:21:44.779Z,84.99
2018-01-01T02:22:44.768Z,85.18
2018-01-01T02:23:44.757Z,85.28
2018-01-01T02:24:44.791Z,85.56
2018-01-01T02:25:44.699Z,85.37
2018-01-01T02:26:44.679Z,85.37
2018-01-01T02:27:44.662Z,85.08
2018-01-01T02:28:44.647Z,84.70
2018-01-01T02:29:44.621Z,84.80
2018-01-01T02:30:44.601Z,85.37
2018-01-01T02:31:44.582Z,84.28
2018-01-01T02:32:44.621Z,84.13
2018-01-01T02:33:44.540Z,84.61
2018-01-01T02:34:44.525Z,83.94
2018-01-01T02:35:44.553Z,84.33
2018-01-01T02:36:44.479Z,84.23
2018-01-01T02:37:44.461Z,83.85
2018-01-01T02:38:44.439Z,84.04
2018-01-01T02:39:44.425Z,83.75
2018-01-01T02:40:44.404Z,83.23
2018-01-01T02:41:44.391Z,83.75
2018-01-01T02:42:44.364Z,83.37
2018-01-01T02:43:44.345Z,83.14
2018-01-01T02:44:44.322Z,82.32
2018-01-01T02:45:44.303Z,81.66
2018-01-01T02:46:44.284Z,81.95
2018-01-01T02:47:44.263Z,82.70
2018-01-01T02:48:44.243Z,82.09
2018-01-01T02:49:44.223Z,82.09
2018-01-01T02:50:44.223Z,82.28
2018-01-01T02:51:44.195Z,81.71
2018-01-01T02:52:44.163Z,82.09
2018-01-01T02:53:44.142Z,81.81
2018-01-01T02:54:44.236Z,81.90
2018-01-01T02:55:44.102Z,82.09
2018-01-01T02:56:44.093Z,81.52
2018-01-01T02:57:44.116Z,81.43
2018-01-01T02:58:44.052Z,81.33
2018-01-01T02:59:44.024Z,81.62
2018-01-01T03:00:44.002Z,80.95
2018-01-01T03:01:43.981Z,81.14
2018-01-01T03:02:43.962Z,80.57
2018-01-01T03:03:43.944Z,80.00
2018-01-01T03:04:43.920Z,79.81
2018-01-01T03:05:43.904Z,80.57
2018-01-01T03:06:43.883Z,81.43
2018-01-01T03:07:43.863Z,81.43
2018-01-01T03:08:43.841Z,80.76
2018-01-01T03:09:43.840Z,80.95
2018-01-01T03:10:43.804Z,80.76
2018-01-01T03:11:43.781Z,81.43
2018-01-01T03:12:43.773Z,81.52
2018-01-01T03:13:43.775Z,80.86
2018-01-01T03:14:43.723Z,81.81
2018-01-01T03:15:43.703Z,82.00
2018-01-01T03:16:43.682Z,82.00
2018-01-01T03:17:43.663Z,81.62
2018-01-01T03:18:43.642Z,82.48
2018-01-01T03:19:43.633Z,82.09
2018-01-01T03:20:43.600Z,81.81
2018-01-01T03:21:43.729Z,82.09
2018-01-01T03:22:43.562Z,81.62
2018-01-01T03:23:43.539Z,82.09
2018-01-01T03:24:43.592Z,81.33
2018-01-01T03:25:43.510Z,81.71
2018-01-01T03:26:43.484Z,81.33
2018-01-01T03:27:43.468Z,81.24
2018-01-01T03:28:43.439Z,81.33
2018-01-01T03:29:43.419Z,82.00
2018-01-01T03:30:43.398Z,81.52
2018-01-01T03:31:43.381Z,81.24
2018-01-01T03:32:43.357Z,81.52
2018-01-01T03:33:43.338Z,81.62
2018-01-01T03:34:43.319Z,81.81
2018-01-01T03:35:43.297Z,81.52
2018-01-01T03:36:43.277Z,82.48
2018-01-01T03:37:43.259Z,82.28
2018-01-01T03:38:43.236Z,82.67
2018-01-01T03:39:43.219Z,82.67
2018-01-01T03:40:43.197Z,83.33
2018-01-01T03:41:43.177Z,83.71
2018-01-01T03:42:43.158Z,84.00
2018-01-01T03:43:43.157Z,84.28
2018-01-01T03:44:43.123Z,84.85
2018-01-01T03:45:43.096Z,84.85
2018-01-01T03:46:43.178Z,85.24
2018-01-01T03:47:43.055Z,85.90
2018-01-01T03:48:43.037Z,85.61
2018-01-01T03:49:43.070Z,86.09
2018-01-01T03:50:42.993Z,86.18
2018-01-01T03:51:42.974Z,86.66
2018-01-01T03:52:42.956Z,87.13
2018-01-01T03:53:42.936Z,86.99
2018-01-01T03:54:42.914Z,87.23
2018-01-01T03:55:42.895Z,86.85
2018-01-01T03:56:42.874Z,87.57
2018-01-01T03:57:42.849Z,87.66
2018-01-01T03:58:42.834Z,87.76
2018-01-01T03:59:42.813Z,88.23
2018-01-01T04:00:42.788Z,87.66
2018-01-01T04:01:42.771Z,87.47
2018-01-01T04:02:42.748Z,87.19
2018-01-01T04:03:42.729Z,87.85
2018-01-01T04:04:42.705Z,87.57
2018-01-01T04:05:42.688Z,87.57
2018-01-01T04:06:42.667Z,87.57
2018-01-01T04:07:42.653Z,87.09
2018-01-01T04:08:42.629Z,86.71
2018-01-01T04:09:42.608Z,86.71
2018-01-01T04:10:42.587Z,86.71
2018-01-01T04:11:42.569Z,86.80
2018-01-01T04:12:42.547Z,86.80
2018-01-01T04:13:42.522Z,86.43
2018-01-01T04:14:42.513Z,85.99
2018-01-01T04:15:42.484Z,86.33
2018-01-01T04:16:42.479Z,86.90
2018-01-01T04:17:42.441Z,86.52
2018-01-01T04:18:42.421Z,87.47
2018-01-01T04:19:42.453Z,87.09
2018-01-01T04:20:42.382Z,87.42
2018-01-01T04:21:42.361Z,87.85
2018-01-01T04:22:42.342Z,87.95
2018-01-01T04:23:42.325Z,88.04
2018-01-01T04:24:42.296Z,87.57
2018-01-01T04:25:42.274Z,87.47
2018-01-01T04:26:42.255Z,87.38
2018-01-01T04:27:42.236Z,87.57
2018-01-01T04:28:42.214Z,87.47
2018-01-01T04:29:42.193Z,87.09
2018-01-01T04:30:42.172Z,86.33
2018-01-01T04:31:42.152Z,86.61
2018-01-01T04:32:42.129Z,86.43
2018-01-01T04:33:42.110Z,85.76
2018-01-01T04:34:42.090Z,85.47
2018-01-01T04:35:42.101Z,86.14
2018-01-01T04:36:42.050Z,85.86
2018-01-01T04:37:42.029Z,85.86
2018-01-01T04:38:42.095Z,85.47
2018-01-01T04:39:41.988Z,85.80
2018-01-01T04:40:41.969Z,85.66
2018-01-01T04:41:41.959Z,86.14
2018-01-01T04:42:41.923Z,85.66
2018-01-01T04:43:41.906Z,85.99
2018-01-01T04:44:41.882Z,85.76
2018-01-01T04:45:41.860Z,85.66
2018-01-01T04:46:41.843Z,85.47
2018-01-01T04:47:41.819Z,86.14
2018-01-01T04:48:41.798Z,85.47
2018-01-01T04:49:41.778Z,85.86
2018-01-01T04:50:41.757Z,85.95
2018-01-01T04:51:41.737Z,86.05
2018-01-01T04:52:41.717Z,85.66
2018-01-01T04:53:41.696Z,85.76
2018-01-01T04:54:41.688Z,84.91
2018-01-01T04:55:41.657Z,85.57
2018-01-01T04:56:41.630Z,85.47
2018-01-01T04:57:41.616Z,85.95
2018-01-01T04:58:41.598Z,86.05
2018-01-01T04:59:41.571Z,85.95
2018-01-01T05:00:41.548Z,85.66
2018-01-01T05:01:41.528Z,86.05
2018-01-01T05:02:41.507Z,86.05
2018-01-01T05:03:41.488Z,86.05
2018-01-01T05:04:41.465Z,86.14
2018-01-01T05:05:41.445Z,86.71
2018-01-01T05:06:41.677Z,86.99
2018-01-01T05:07:41.405Z,86.52
2018-01-01T05:08:41.406Z,86.61
2018-01-01T05:09:41.364Z,86.33
2018-01-01T05:10:41.357Z,86.99
2018-01-01T05:11:41.327Z,86.90
2018-01-01T05:12:41.300Z,87.28
2018-01-01T05:13:41.284Z,87.09
2018-01-01T05:14:41.284Z,87.38
2018-01-01T05:15:41.239Z,87.57
2018-01-01T05:16:41.224Z,87.47
2018-01-01T05:17:41.196Z,87.38
2018-01-01T05:18:41.175Z,87.66
2018-01-01T05:19:41.156Z,87.38
2018-01-01T05:20:41.136Z,87.47
2018-01-01T05:21:41.113Z,87.28
2018-01-01T05:22:41.094Z,87.85
2018-01-01T05:23:41.075Z,87.66
2018-01-01T05:24:41.054Z,87.76
2018-01-01T05:25:41.033Z,88.04
2018-01-01T05:26:41.012Z,88.33
2018-01-01T05:27:40.992Z,88.61
2018-01-01T05:28:40.969Z,88.52
2018-01-01T05:29:40.950Z,89.18
2018-01-01T05:30:40.941Z,89.66
2018-01-01T05:31:40.907Z,89.28
2018-01-01T05:32:40.887Z,89.66
2018-01-01T05:33:40.917Z,89.47
2018-01-01T05:34:40.847Z,90.04
2018-01-01T05:35:40.823Z,89.94
2018-01-01T05:36:40.803Z,90.70
2018-01-01T05:37:40.784Z,91.56
2018-01-01T05:38:40.763Z,91.89
2018-01-01T05:39:40.743Z,91.52
2018-01-01T05:40:40.721Z,91.80
2018-01-01T05:41:40.700Z,92.37
2018-01-01T05:42:40.690Z,92.08
2018-01-01T05:43:40.660Z,92.66
2018-01-01T05:44:40.640Z,92.75
2018-01-01T05:45:40.619Z,92.46
2018-01-01T05:46:40.601Z,92.46
2018-01-01T05:47:40.607Z,93.04
2018-01-01T05:48:40.555Z,93.60
2018-01-01T05:49:40.533Z,92.66
2018-01-01T05:50:40.514Z,92.56
2018-01-01T05:51:40.493Z,93.32
2018-01-01T05:52:40.474Z,93.60
2018-01-01T05:53:40.451Z,93.60
2018-01-01T05:54:40.431Z,94.18
2018-01-01T05:55:40.410Z,94.74
2018-01-01T05:56:40.390Z,94.56
2018-01-01T05:57:40.376Z,93.99
2018-01-01T05:58:40.348Z,94.65
2018-01-01T05:59:40.333Z,95.32
2018-01-01T06:00:40.387Z,95.89
2018-01-01T06:01:40.301Z,95.79
2018-01-01T06:02:40.266Z,96.36
2018-01-01T06:03:40.250Z,96.74
2018-01-01T06:04:40.227Z,96.74
2018-01-01T06:05:40.201Z,98.07
2018-01-01T06:06:40.187Z,97.12
2018-01-01T06:07:40.163Z,96.93
2018-01-01T06:08:40.145Z,97.41
2018-01-01T06:09:40.130Z,96.65
2018-01-01T06:10:40.102Z,96.84
2018-01-01T06:11:40.082Z,96.74
2018-01-01T06:12:40.058Z,96.36
2018-01-01T06:13:40.038Z,96.65
2018-01-01T06:14:40.018Z,96.55
2018-01-01T06:15:39.997Z,95.79
2018-01-01T06:16:39.976Z,95.79
2018-01-01T06:17:39.956Z,96.17
2018-01-01T06:18:39.937Z,96.26
2018-01-01T06:19:39.914Z,96.55
2018-01-01T06:20:39.897Z,96.55
2018-01-01T06:21:39.875Z,97.60
2018-01-01T06:22:39.875Z,98.07
2018-01-01T06:23:39.834Z,98.17
2018-01-01T06:24:39.810Z,98.93
2018-01-01T06:25:39.804Z,99.30
2018-01-01T06:26:39.769Z,99.30
2018-01-01T06:27:39.748Z,99.21
2018-01-01T06:28:39.729Z,98.83
2018-01-01T06:29:39.707Z,99.59
2018-01-01T06:30:39.686Z,99.99
2018-01-01T06:31:39.666Z,99.26
2018-01-01T06:32:39.654Z,98.21
2018-01-01T06:33:39.688Z,98.21
2018-01-01T06:34:39.602Z,99.44
2018-01-01T06:35:39.583Z,99.99
2018-01-01T06:36:39.566Z,99.16
2018-01-01T06:37:39.543Z,99.73
2018-01-01T06:38:39.522Z,99.92
2018-01-01T06:39:39.500Z,99.35
2018-01-01T06:40:39.476Z,99.64
2018-01-01T06:41:39.456Z,99.88
2018-01-01T06:42:39.437Z,99.07
2018-01-01T06:43:39.416Z,98.79
2018-01-01T06:44:39.415Z,98.26
2018-01-01T06:45:39.374Z,98.45
2018-01-01T06:46:39.353Z,97.12
2018-01-01T06:47:39.333Z,97.03
2018-01-01T06:48:39.310Z,97.03
2018-01-01T06:49:39.291Z,96.74
2018-01-01T06:50:39.270Z,95.89
2018-01-01T06:51:39.249Z,94.84
2018-01-01T06:52:39.318Z,94.46
2018-01-01T06:53:39.214Z,94.18
2018-01-01T06:54:39.190Z,93.41
2018-01-01T06:55:39.288Z,92.94
2018-01-01T06:56:39.147Z,93.13
2018-01-01T06:57:39.123Z,92.75
2018-01-01T06:58:39.113Z,92.46
2018-01-01T06:59:39.081Z,92.46
2018-01-01T07:00:39.060Z,93.70
2018-01-01T07:01:39.040Z,93.41
2018-01-01T07:02:39.019Z,92.94
2018-01-01T07:03:39.009Z,93.13
2018-01-01T07:04:38.979Z,92.66
2018-01-01T07:05:38.962Z,92.66
2018-01-01T07:06:38.939Z,92.46
2018-01-01T07:07:38.919Z,92.75
2018-01-01T07:08:38.894Z,92.85
2018-01-01T07:09:38.875Z,93.41
2018-01-01T07:10:38.851Z,93.41
2018-01-01T07:11:38.844Z,94.27
2018-01-01T07:12:38.808Z,95.12
2018-01-01T07:13:38.788Z,94.84
2018-01-01T07:14:38.875Z,95.22
2018-01-01T07:15:38.748Z,94.65
2018-01-01T07:16:38.726Z,96.26
2018-01-01T07:17:38.701Z,97.27
2018-01-01T07:18:38.681Z,96.12
2018-01-01T07:19:38.661Z,95.08
2018-01-01T07:20:38.639Z,93.37
2018-01-01T07:21:38.669Z,91.71
2018-01-01T07:22:38.599Z,92.66
2018-01-01T07:23:38.576Z,94.27
2018-01-01T07:24:38.556Z,95.22
2018-01-01T07:25:38.539Z,95.84
2018-01-01T07:26:38.511Z,95.74
2018-01-01T07:27:38.490Z,96.41
2018-01-01T07:28:38.471Z,96.31
2018-01-01T07:29:38.448Z,96.41
2018-01-01T07:30:38.424Z,96.50
2018-01-01T07:31:38.413Z,97.17
2018-01-01T07:32:38.384Z,97.36
2018-01-01T07:33:38.360Z,97.92
2018-01-01T07:34:38.340Z,96.97
2018-01-01T07:35:38.319Z,97.64
2018-01-01T07:36:38.293Z,98.02
2018-01-01T07:37:38.274Z,99.35
2018-01-01T07:38:38.254Z,99.35
2018-01-01T07:39:38.234Z,99.35
2018-01-01T07:40:38.210Z,98.78
2018-01-01T07:41:38.185Z,99.35
2018-01-01T07:42:38.167Z,99.26
2018-01-01T07:43:38.144Z,99.06
2018-01-01T07:44:38.189Z,99.73
2018-01-01T07:45:38.103Z,99.82
2018-01-01T07:46:38.078Z,99.99
2018-01-01T07:47:38.093Z,99.99
2018-01-01T07:48:38.035Z,99.63
2018-01-01T07:49:38.020Z,99.82
2018-01-01T07:50:38.004Z,99.16
2018-01-01T07:51:37.970Z,98.49
2018-01-01T07:52:37.951Z,98.97
2018-01-01T07:53:37.931Z,98.97
2018-01-01T07:54:37.912Z,98.97
2018-01-01T07:55:37.887Z,98.97
2018-01-01T07:56:37.862Z,99.35
2018-01-01T07:57:37.840Z,99.35
2018-01-01T07:58:37.817Z,99.54
2018-01-01T07:59:37.798Z,98.73
2018-01-01T08:00:37.774Z,98.73
2018-01-01T08:01:37.758Z,98.07
2018-01-01T08:02:37.747Z,97.31
2018-01-01T08:03:37.709Z,95.98
2018-01-01T08:04:37.691Z,94.56
2018-01-01T08:05:37.665Z,93.75
2018-01-01T08:06:37.650Z,93.27
2018-01-01T08:07:37.631Z,93.84
2018-01-01T08:08:37.600Z,94.03
2018-01-01T08:09:37.621Z,94.23
2018-01-01T08:10:37.560Z,94.32
2018-01-01T08:11:37.542Z,93.27
2018-01-01T08:12:37.515Z,93.37
2018-01-01T08:13:37.492Z,93.65
2018-01-01T08:14:37.472Z,93.56
2018-01-01T08:15:37.451Z,92.90
2018-01-01T08:16:37.429Z,91.94
2018-01-01T08:17:37.517Z,91.75
2018-01-01T08:18:37.385Z,92.04
2018-01-01T08:19:37.364Z,91.89
2018-01-01T08:20:37.344Z,92.23
2018-01-01T08:21:37.320Z,92.23
2018-01-01T08:22:37.300Z,90.75
2018-01-01T08:23:37.281Z,91.28
2018-01-01T08:24:37.259Z,91.71
2018-01-01T08:25:37.237Z,90.85
2018-01-01T08:26:37.212Z,90.94
2018-01-01T08:27:37.192Z,90.85
2018-01-01T08:28:37.170Z,91.80
2018-01-01T08:29:37.149Z,90.37
2018-01-01T08:30:37.135Z,89.61
2018-01-01T08:31:37.113Z,89.52
2018-01-01T08:32:37.087Z,89.71
2018-01-01T08:33:37.066Z,89.52
2018-01-01T08:34:37.048Z,89.42
2018-01-01T08:35:37.023Z,89.33
2018-01-01T08:36:37.001Z,89.33
2018-01-01T08:37:36.979Z,89.42
2018-01-01T08:38:36.999Z,90.28
2018-01-01T08:39:37.036Z,89.61
2018-01-01T08:40:36.937Z,88.95
2018-01-01T08:41:36.895Z,89.04
2018-01-01T08:42:36.975Z,89.04
2018-01-01T08:43:36.855Z,89.61
2018-01-01T08:44:36.835Z,89.71
2018-01-01T08:45:36.814Z,89.90
2018-01-01T08:46:36.790Z,89.71
2018-01-01T08:47:36.770Z,89.52
2018-01-01T08:48:36.756Z,89.52
2018-01-01T08:49:36.726Z,89.23
2018-01-01T08:50:36.707Z,89.23
2018-01-01T08:51:36.695Z,89.14
2018-01-01T08:52:36.691Z,88.67
2018-01-01T08:53:36.653Z,88.76
2018-01-01T08:54:36.623Z,88.67
2018-01-01T08:55:36.612Z,88.76
2018-01-01T08:56:36.585Z,89.14
2018-01-01T08:57:36.564Z,90.09
2018-01-01T08:58:36.544Z,89.23
2018-01-01T08:59:36.523Z,89.14
2018-01-01T09:00:36.497Z,89.52
2018-01-01T09:01:36.477Z,88.95
2018-01-01T09:02:36.467Z,88.67
2018-01-01T09:03:36.436Z,88.67
2018-01-01T09:04:36.424Z,88.67
2018-01-01T09:05:36.402Z,88.76
2018-01-01T09:06:36.374Z,88.00
2018-01-01T09:07:36.382Z,88.95
2018-01-01T09:08:36.332Z,88.57
2018-01-01T09:09:36.460Z,88.67
2018-01-01T09:10:36.292Z,88.85
2018-01-01T09:11:36.274Z,88.09
2018-01-01T09:12:36.331Z,89.04
2018-01-01T09:13:36.232Z,88.47
2018-01-01T09:14:36.207Z,89.04
2018-01-01T09:15:36.190Z,88.47
2018-01-01T09:16:36.173Z,88.09
2018-01-01T09:17:36.145Z,88.95
2018-01-01T09:18:36.125Z,88.28
2018-01-01T09:19:36.103Z,88.57
2018-01-01T09:20:36.081Z,88.57
2018-01-01T09:21:36.064Z,88.00
2018-01-01T09:22:36.042Z,88.00
2018-01-01T09:23:36.023Z,88.28
2018-01-01T09:24:36.000Z,88.38
2018-01-01T09:25:35.998Z,88.47
2018-01-01T09:26:35.963Z,88.28
2018-01-01T09:27:35.940Z,87.90
2018-01-01T09:28:35.921Z,88.47
2018-01-01T09:29:35.899Z,88.47
2018-01-01T09:30:35.880Z,88.38
2018-01-01T09:31:35.871Z,88.00
2018-01-01T09:32:35.833Z,88.28
2018-01-01T09:33:35.813Z,88.28
2018-01-01T09:34:35.893Z,88.28
2018-01-01T09:35:35.772Z,88.00
2018-01-01T09:36:35.750Z,86.95
2018-01-01T09:37:35.791Z,87.43
2018-01-01T09:38:35.710Z,86.76
2018-01-01T09:39:35.695Z,86.57
2018-01-01T09:40:35.670Z,87.24
2018-01-01T09:41:35.650Z,86.38
2018-01-01T09:42:35.627Z,87.14
2018-01-01T09:43:35.607Z,87.57
2018-01-01T09:44:35.585Z,86.99
2018-01-01T09:45:35.566Z,86.33
2018-01-01T09:46:35.560Z,86.61
2018-01-01T09:47:35.531Z,86.52
2018-01-01T09:48:35.510Z,86.33
2018-01-01T09:49:35.505Z,86.43
2018-01-01T09:50:35.466Z,85.47
2018-01-01T09:51:35.442Z,85.95
2018-01-01T09:52:35.425Z,85.28
2018-01-01T09:53:35.407Z,85.47
2018-01-01T09:54:35.384Z,85.66
2018-01-01T09:55:35.365Z,85.91
2018-01-01T09:56:35.350Z,85.66
2018-01-01T09:57:35.326Z,85.57
2018-01-01T09:58:35.305Z,85.10
2018-01-01T09:59:35.287Z,85.66
2018-01-01T10:00:35.267Z,85.19
2018-01-01T10:01:35.289Z,85.28
2018-01-01T10:02:35.225Z,85.00
2018-01-01T10:03:35.207Z,85.86
2018-01-01T10:04:35.285Z,85.38
2018-01-01T10:05:35.160Z,85.28
2018-01-01T10:06:35.142Z,85.10
2018-01-01T10:07:35.135Z,85.57
2018-01-01T10:08:35.099Z,85.76
2018-01-01T10:09:35.084Z,85.66
2018-01-01T10:10:35.062Z,86.61
2018-01-01T10:11:35.045Z,85.47
2018-01-01T10:12:35.020Z,85.00
2018-01-01T10:13:34.998Z,84.24
2018-01-01T10:14:34.991Z,84.81
2018-01-01T10:15:34.963Z,84.43
2018-01-01T10:16:34.937Z,84.14
2018-01-01T10:17:34.923Z,83.95
2018-01-01T10:18:34.908Z,83.39
2018-01-01T10:19:34.882Z,83.19
2018-01-01T10:20:34.871Z,83.39
2018-01-01T10:21:34.842Z,83.19
2018-01-01T10:22:34.826Z,83.48
2018-01-01T10:23:34.815Z,84.14
2018-01-01T10:24:34.784Z,83.58
2018-01-01T10:25:34.761Z,83.00
2018-01-01T10:26:34.850Z,82.43
2018-01-01T10:27:34.741Z,82.05
2018-01-01T10:28:34.702Z,82.19
2018-01-01T10:29:34.717Z,82.43
2018-01-01T10:30:34.673Z,81.86
2018-01-01T10:31:34.640Z,82.09
2018-01-01T10:32:34.621Z,82.57
2018-01-01T10:33:34.604Z,83.10
2018-01-01T10:34:34.583Z,83.10
2018-01-01T10:35:34.562Z,83.00
2018-01-01T10:36:34.549Z,82.43
2018-01-01T10:37:34.525Z,82.71
2018-01-01T10:38:34.512Z,83.39
2018-01-01T10:39:34.484Z,83.19
2018-01-01T10:40:34.473Z,83.39
2018-01-01T10:41:34.444Z,83.10
2018-01-01T10:42:34.429Z,82.76
2018-01-01T10:43:34.408Z,82.00
2018-01-01T10:44:34.387Z,82.81
2018-01-01T10:45:34.378Z,82.62
2018-01-01T10:46:34.372Z,82.81
2018-01-01T10:47:34.326Z,82.34
2018-01-01T10:48:34.307Z,82.43
2018-01-01T10:49:34.288Z,82.91
2018-01-01T10:50:34.267Z,82.71
2018-01-01T10:51:34.248Z,82.43
2018-01-01T10:52:34.226Z,82.62
2018-01-01T10:53:34.218Z,82.53
2018-01-01T10:54:34.191Z,82.53
2018-01-01T10:55:34.178Z,82.62
2018-01-01T10:56:34.207Z,82.91
2018-01-01T10:57:34.140Z,82.43
2018-01-01T10:58:34.113Z,82.62
2018-01-01T10:59:34.098Z,83.76
2018-01-01T11:00:34.072Z,83.48
2018-01-01T11:01:34.050Z,83.29
2018-01-01T11:02:34.030Z,83.19
2018-01-01T11:03:34.010Z,83.10
2018-01-01T11:04:33.991Z,83.29
2018-01-01T11:05:33.985Z,83.10
2018-01-01T11:06:33.956Z,83.67
2018-01-01T11:07:33.936Z,83.58
2018-01-01T11:08:33.916Z,83.48
2018-01-01T11:09:33.894Z,83.39
2018-01-01T11:10:33.874Z,83.58
2018-01-01T11:11:33.858Z,83.95
2018-01-01T11:12:33.840Z,83.86
2018-01-01T11:13:33.813Z,83.58
2018-01-01T11:14:33.796Z,84.14
2018-01-01T11:15:33.783Z,83.29
2018-01-01T11:16:33.753Z,83.48
2018-01-01T11:17:33.735Z,83.76
2018-01-01T11:18:33.728Z,84.14
2018-01-01T11:19:33.693Z,83.86
2018-01-01T11:20:33.673Z,83.19
2018-01-01T11:21:33.656Z,83.29
2018-01-01T11:22:33.636Z,83.39
2018-01-01T11:23:33.620Z,83.19
2018-01-01T11:24:33.594Z,83.00
2018-01-01T11:25:33.579Z,82.71
2018-01-01T11:26:33.558Z,83.76
2018-01-01T11:27:33.542Z,83.95
2018-01-01T11:28:33.518Z,84.14
2018-01-01T11:29:33.505Z,83.86
2018-01-01T11:30:33.491Z,84.43
2018-01-01T11:31:33.462Z,84.43
2018-01-01T11:32:33.469Z,84.43
2018-01-01T11:33:33.430Z,84.43
2018-01-01T11:34:33.401Z,83.95
2018-01-01T11:35:33.398Z,83.76
2018-01-01T11:36:33.362Z,83.48
2018-01-01T11:37:33.341Z,83.42
2018-01-01T11:38:33.320Z,82.71
2018-01-01T11:39:33.310Z,83.10
2018-01-01T11:40:33.291Z,83.14
2018-01-01T11:41:33.270Z,82.62
2018-01-01T11:42:33.242Z,83.29
2018-01-01T11:43:33.222Z,83.19
2018-01-01T11:44:33.223Z,82.91
2018-01-01T11:45:33.191Z,83.48
2018-01-01T11:46:33.164Z,83.39
2018-01-01T11:47:33.149Z,84.05
2018-01-01T11:48:33.129Z,83.95
2018-01-01T11:49:33.105Z,84.33
2018-01-01T11:50:33.094Z,83.48
2018-01-01T11:51:33.068Z,84.33
2018-01-01T11:52:33.064Z,84.43
2018-01-01T11:53:33.030Z,84.33
2018-01-01T11:54:33.008Z,83.86
2018-01-01T11:55:32.990Z,83.19
2018-01-01T11:56:32.967Z,83.48
2018-01-01T11:57:32.949Z,83.00
2018-01-01T11:58:32.933Z,82.86
2018-01-01T11:59:32.917Z,83.04
2018-01-01T12:00:32.893Z,83.23
2018-01-01T12:01:32.885Z,83.00
2018-01-01T12:02:32.852Z,82.91
2018-01-01T12:03:32.842Z,82.57
2018-01-01T12:04:32.885Z,82.86
2018-01-01T12:05:32.793Z,82.76
2018-01-01T12:06:32.773Z,82.67
2018-01-01T12:07:32.864Z,82.57
2018-01-01T12:08:32.736Z,81.77
2018-01-01T12:09:32.717Z,82.48
2018-01-01T12:10:32.706Z,82.48
2018-01-01T12:11:32.679Z,82.48
2018-01-01T12:12:32.685Z,82.09
2018-01-01T12:13:32.640Z,81.33
2018-01-01T12:14:32.625Z,81.24
2018-01-01T12:15:32.607Z,81.33
2018-01-01T12:16:32.579Z,80.86
2018-01-01T12:17:32.557Z,80.95
2018-01-01T12:18:32.568Z,81.33
2018-01-01T12:19:32.521Z,81.90
2018-01-01T12:20:32.501Z,82.28
2018-01-01T12:21:32.488Z,82.00
2018-01-01T12:22:32.471Z,82.19
2018-01-01T12:23:32.512Z,82.57
2018-01-01T12:24:32.426Z,82.48
2018-01-01T12:25:32.414Z,82.48
2018-01-01T12:26:32.386Z,82.00
2018-01-01T12:27:32.371Z,82.28
2018-01-01T12:28:32.347Z,81.81
2018-01-01T12:29:32.333Z,81.81
2018-01-01T12:30:32.312Z,81.62
2018-01-01T12:31:32.293Z,82.28
2018-01-01T12:32:32.268Z,82.28
2018-01-01T12:33:32.254Z,82.09
2018-01-01T12:34:32.249Z,82.09
2018-01-01T12:35:32.240Z,82.71
2018-01-01T12:36:32.203Z,81.96
2018-01-01T12:37:32.209Z,82.76
2018-01-01T12:38:32.156Z,82.67
2018-01-01T12:39:32.162Z,82.67
2018-01-01T12:40:32.117Z,82.86
2018-01-01T12:41:32.095Z,83.42
2018-01-01T12:42:32.077Z,83.14
2018-01-01T12:43:32.056Z,82.76
2018-01-01T12:44:32.053Z,83.04
2018-01-01T12:45:32.016Z,82.48
2018-01-01T12:46:32.002Z,82.71
2018-01-01T12:47:31.980Z,82.28
2018-01-01T12:48:31.962Z,82.38
2018-01-01T12:49:31.943Z,82.48
2018-01-01T12:50:31.920Z,82.67
2018-01-01T12:51:31.904Z,82.67
2018-01-01T12:52:31.885Z,82.19